Time;durP1;ratioP1;P1;durP2;ratioP2;P2;SDS_P1;SDS_P2;PMS_P1;PMS_P2;Temp;Humidity;BMP_temperature;BMP_pressure;BME280_temperature;BME280_humidity;BME280_pressure;Samples;Min_cycle;Max_cycle;Signal;HPM_P1;HPM_P2
2022/11/12 00:00:52;;;;;;;54.50;39.10;;;;;;;6.00;100.00;100498.10;106318;1285;69020;-75
2022/11/12 00:03:19;;;;;;;62.60;44.00;;;;;;;5.95;100.00;100506.66;106328;1292;64748;-75
2022/11/12 00:05:48;;;;;;;54.00;37.60;;;;;;;5.90;100.00;100506.76;106310;1285;59787;-75
2022/11/12 00:08:14;;;;;;;49.00;36.30;;;;;;;5.87;100.00;100509.83;106325;1286;60286;-75
2022/11/12 00:10:41;;;;;;;46.00;31.20;;;;;;;5.84;100.00;100511.13;106363;1285;67810;-75
2022/11/12 00:13:07;;;;;;;48.70;33.90;;;;;;;5.80;100.00;100514.05;106346;1284;61342;-75
2022/11/12 00:15:34;;;;;;;47.30;34.80;;;;;;;5.75;100.00;100518.22;106310;1286;65308;-75
2022/11/12 00:18:01;;;;;;;47.90;33.80;;;;;;;5.69;100.00;100519.76;106325;1286;60049;-75
2022/11/12 00:20:28;;;;;;;44.20;32.90;;;;;;;5.63;100.00;100523.59;106347;1285;59569;-75
2022/11/12 00:22:54;;;;;;;49.50;36.10;;;;;;;5.57;100.00;100520.73;106152;1294;65205;-75
2022/11/12 00:25:21;;;;;;;45.20;33.60;;;;;;;5.50;100.00;100518.41;106339;1276;61040;-74
2022/11/12 00:27:47;;;;;;;48.20;33.10;;;;;;;5.47;100.00;100516.37;106339;1286;63687;-76
2022/11/12 00:30:14;;;;;;;45.40;32.60;;;;;;;5.44;100.00;100512.55;106322;1285;59707;-76
2022/11/12 00:32:41;;;;;;;51.20;35.20;;;;;;;5.39;100.00;100509.83;106340;1277;59764;-76
2022/11/12 00:35:08;;;;;;;50.90;37.40;;;;;;;5.36;100.00;100507.96;106346;1284;66835;-76
2022/11/12 00:37:35;;;;;;;53.50;43.30;;;;;;;5.33;100.00;100505.74;106336;1284;59780;-76
2022/11/12 00:40:01;;;;;;;51.00;39.30;;;;;;;5.28;100.00;100510.23;106320;1284;65251;-76
2022/11/12 00:42:28;;;;;;;52.30;39.60;;;;;;;5.24;100.00;100509.45;106305;1292;59698;-76
2022/11/12 00:44:54;;;;;;;52.40;38.00;;;;;;;5.20;100.00;100509.37;106026;1285;59644;-74
2022/11/12 00:47:21;;;;;;;53.90;39.20;;;;;;;5.15;100.00;100509.13;106317;1278;66713;-75
2022/11/12 00:49:47;;;;;;;51.60;38.70;;;;;;;5.10;100.00;100504.10;106339;1285;59717;-76
2022/11/12 00:52:14;;;;;;;58.00;42.40;;;;;;;5.05;100.00;100502.63;106310;1285;63853;-75
2022/11/12 00:54:41;;;;;;;55.30;42.90;;;;;;;5.00;100.00;100499.02;106319;1292;59694;-76
2022/11/12 00:57:07;;;;;;;53.80;42.20;;;;;;;4.94;100.00;100500.02;106333;1285;59661;-76
2022/11/12 00:59:34;;;;;;;58.60;43.30;;;;;;;4.88;100.00;100503.66;106336;1285;67641;-76
2022/11/12 01:02:00;;;;;;;53.40;41.90;;;;;;;4.83;100.00;100503.39;106338;1282;61039;-76
2022/11/12 01:04:27;;;;;;;65.80;44.20;;;;;;;4.79;100.00;100504.52;106344;1286;64448;-76
2022/11/12 01:06:54;;;;;;;62.50;45.50;;;;;;;4.74;100.00;100499.88;106322;1278;59797;-76
2022/11/12 01:09:20;;;;;;;68.30;48.70;;;;;;;4.69;100.00;100508.06;106104;1289;59831;-76
2022/11/12 01:11:47;;;;;;;62.20;47.20;;;;;;;4.66;100.00;100511.11;106368;1285;67546;-75
2022/11/12 01:14:14;;;;;;;63.20;46.40;;;;;;;4.62;100.00;100512.77;106110;1284;67396;-75
2022/11/12 01:16:41;;;;;;;67.70;47.20;;;;;;;4.56;100.00;100512.52;106313;1269;63757;-77
2022/11/12 01:19:10;;;;;;;68.30;49.70;;;;;;;4.51;100.00;100516.84;106332;1284;59650;-76
2022/11/12 01:21:39;;;;;;;67.60;48.90;;;;;;;4.47;100.00;100513.91;106366;1285;59750;-76
2022/11/12 01:24:07;;;;;;;61.60;46.30;;;;;;;4.41;100.00;100517.36;106096;1281;65402;-76
2022/11/12 01:26:34;;;;;;;65.20;48.80;;;;;;;4.36;100.00;100516.23;106276;1286;60173;-76
2022/11/12 01:29:00;;;;;;;64.90;48.90;;;;;;;4.34;100.00;100515.89;106332;1285;62380;-75
2022/11/12 01:31:32;;;;;;;66.20;48.40;;;;;;;4.33;100.00;100519.45;106312;1286;59926;-75
2022/11/12 01:34:02;;;;;;;68.70;49.30;;;;;;;4.31;100.00;100520.89;106344;1285;59471;-75
2022/11/12 01:36:36;;;;;;;69.50;49.20;;;;;;;4.28;100.00;100514.80;106355;1285;67732;-75
2022/11/12 01:39:05;;;;;;;65.70;48.70;;;;;;;4.25;100.00;100510.96;106357;1278;61102;-75
2022/11/12 01:41:34;;;;;;;67.30;49.00;;;;;;;4.21;100.00;100515.41;106214;1288;65500;-75
2022/11/12 01:44:28;;;;;;;68.30;49.80;;;;;;;4.17;100.00;100511.08;106303;1286;59956;-75
2022/11/12 01:47:03;;;;;;;65.10;47.50;;;;;;;4.12;100.00;100515.73;105653;1287;59653;-75
2022/11/12 01:49:38;;;;;;;63.20;47.80;;;;;;;4.09;100.00;100513.16;105652;1294;67879;-76
2022/11/12 01:52:16;;;;;;;72.10;54.70;;;;;;;4.05;100.00;100514.63;105650;1294;61023;-76
2022/11/12 01:54:48;;;;;;;70.80;52.90;;;;;;;4.01;100.00;100517.67;105640;1294;72726;-75
2022/11/12 01:57:19;;;;;;;65.20;50.60;;;;;;;3.97;100.00;100521.95;105641;1295;59730;-76
2022/11/12 01:59:49;;;;;;;70.60;51.50;;;;;;;3.94;100.00;100528.52;105645;1293;59770;-76
2022/11/12 02:02:15;;;;;;;65.80;49.70;;;;;;;3.92;100.00;100528.36;105644;1293;67939;-76
2022/11/12 02:04:42;;;;;;;71.30;50.20;;;;;;;3.90;100.00;100528.56;105638;1287;61048;-76
2022/11/12 02:07:09;;;;;;;68.00;51.50;;;;;;;3.87;100.00;100528.43;105613;1300;65058;-75
2022/11/12 02:09:36;;;;;;;65.30;49.30;;;;;;;3.82;100.00;100522.02;105658;1294;59852;-75
2022/11/12 02:12:03;;;;;;;69.80;51.60;;;;;;;3.76;100.00;100517.88;105644;1294;59615;-76
2022/11/12 02:14:31;;;;;;;76.40;55.30;;;;;;;3.72;100.00;100520.20;105650;1288;67740;-75
2022/11/12 02:16:58;;;;;;;71.80;54.40;;;;;;;3.71;100.00;100522.35;105673;1294;59866;-75
2022/11/12 02:19:25;;;;;;;69.40;53.20;;;;;;;3.66;100.00;100523.46;105587;1294;65038;-76
2022/11/12 02:21:52;;;;;;;89.10;67.90;;;;;;;3.62;100.00;100522.64;105648;1293;59963;-77
2022/11/12 02:24:18;;;;;;;82.00;63.30;;;;;;;3.62;100.00;100521.77;105985;1285;59524;-76
2022/11/12 02:26:48;;;;;;;79.70;59.30;;;;;;;3.60;100.00;100523.21;106345;1285;60205;-76
2022/11/12 02:29:14;;;;;;;74.30;54.10;;;;;;;3.56;100.00;100518.86;106353;1285;61304;-76
2022/11/12 02:31:41;;;;;;;64.10;50.20;;;;;;;3.53;100.00;100520.13;106319;1278;64074;-76
2022/11/12 02:34:07;;;;;;;62.80;48.20;;;;;;;3.51;100.00;100524.36;106340;1278;59635;-76
2022/11/12 02:36:34;;;;;;;63.10;48.90;;;;;;;3.48;100.00;100521.06;106334;1278;59694;-76
2022/11/12 02:39:01;;;;;;;65.40;50.30;;;;;;;3.45;100.00;100519.35;106337;1278;67813;-76
2022/11/12 02:41:27;;;;;;;61.00;47.50;;;;;;;3.42;100.00;100519.05;106343;1278;61286;-76
2022/11/12 02:43:54;;;;;;;61.60;46.50;;;;;;;3.40;100.00;100519.77;106358;1285;65020;-76
2022/11/12 02:46:21;;;;;;;61.10;45.70;;;;;;;3.38;100.00;100518.58;106039;1291;59735;-75
2022/11/12 02:48:47;;;;;;;66.90;49.40;;;;;;;3.38;100.00;100520.34;106373;1286;59726;-75
2022/11/12 02:51:14;;;;;;;64.20;46.50;;;;;;;3.37;100.00;100519.29;106322;1286;75710;-76
2022/11/12 02:53:40;;;;;;;61.50;45.00;;;;;;;3.36;100.00;100520.70;106073;1287;61243;-76
2022/11/12 02:56:07;;;;;;;58.10;44.50;;;;;;;3.35;100.00;100521.42;106310;1285;59759;-76
2022/11/12 02:58:33;;;;;;;59.80;43.90;;;;;;;3.30;100.00;100521.66;106040;1283;59769;-77
2022/11/12 03:01:00;;;;;;;65.90;50.80;;;;;;;3.28;100.00;100524.14;106344;1284;59532;-76
2022/11/12 03:03:26;;;;;;;64.40;47.50;;;;;;;3.27;100.00;100526.09;106348;1285;67818;-75
2022/11/12 03:05:55;;;;;;;66.30;49.50;;;;;;;3.26;100.00;100522.58;106324;1278;60900;-74
2022/11/12 03:08:23;;;;;;;78.80;59.20;;;;;;;3.24;100.00;100516.98;106337;1285;65004;-75
2022/11/12 03:10:49;;;;;;;72.90;56.90;;;;;;;3.22;100.00;100517.91;106348;1278;59701;-76
2022/11/12 03:13:16;;;;;;;83.60;65.50;;;;;;;3.20;100.00;100520.73;106373;1285;59515;-76
2022/11/12 03:15:43;;;;;;;82.60;62.50;;;;;;;3.19;100.00;100521.61;106248;1284;67000;-76
2022/11/12 03:18:09;;;;;;;81.70;61.50;;;;;;;3.18;100.00;100525.14;106340;1278;59845;-76
2022/11/12 03:20:37;;;;;;;74.90;58.50;;;;;;;3.17;100.00;100524.46;106315;1286;65257;-74
2022/11/12 03:23:07;;;;;;;75.40;60.30;;;;;;;3.14;100.00;100525.37;106344;1278;59672;-76
2022/11/12 03:25:35;;;;;;;72.70;56.00;;;;;;;3.12;100.00;100525.56;106338;1285;59630;-76
2022/11/12 03:28:05;;;;;;;62.10;52.00;;;;;;;3.09;100.00;100527.35;106082;1288;66599;-76
2022/11/12 03:30:34;;;;;;;67.30;50.40;;;;;;;3.06;100.00;100524.94;105819;1284;59904;-75
2022/11/12 03:33:00;;;;;;;57.60;44.30;;;;;;;3.04;100.00;100527.41;106336;1282;65265;-76
2022/11/12 03:35:27;;;;;;;57.20;43.50;;;;;;;3.01;100.00;100527.09;106306;1285;59706;-76
2022/11/12 03:37:54;;;;;;;66.10;48.60;;;;;;;2.97;100.00;100528.38;106124;1288;59660;-75
2022/11/12 03:40:21;;;;;;;62.90;49.40;;;;;;;2.94;100.00;100527.72;106234;1287;67041;-75
2022/11/12 03:42:49;;;;;;;69.70;51.50;;;;;;;2.93;100.00;100526.33;106349;1276;61008;-76
2022/11/12 03:45:17;;;;;;;67.40;51.70;;;;;;;2.92;100.00;100520.18;106329;1284;62638;-76
2022/11/12 03:47:46;;;;;;;79.40;63.30;;;;;;;2.91;100.00;100514.05;106287;1285;59682;-76
2022/11/12 03:50:15;;;;;;;70.40;52.40;;;;;;;2.87;100.00;100512.34;106368;1278;59535;-76
2022/11/12 03:52:45;;;;;;;63.70;51.30;;;;;;;2.84;100.00;100511.66;106394;1284;66748;-75
2022/11/12 03:55:14;;;;;;;69.80;53.30;;;;;;;2.81;100.00;100508.38;106354;1285;61101;-76
2022/11/12 03:57:40;;;;;;;61.90;49.20;;;;;;;2.77;100.00;100504.90;106344;1286;65214;-76
2022/11/12 04:00:09;;;;;;;63.60;47.90;;;;;;;2.73;100.00;100513.19;106343;1284;59640;-76
2022/11/12 04:02:36;;;;;;;73.60;58.20;;;;;;;2.68;100.00;100515.19;106246;1288;59653;-77
2022/11/12 04:10:50;;;;;;;71.60;53.80;;;;;;;2.52;100.00;100513.58;106339;1284;65240;-76
2022/11/12 04:13:29;;;;;;;69.80;54.40;;;;;;;2.51;100.00;100506.93;106342;1285;59822;-76
2022/11/12 04:21:55;;;;;;;69.30;50.70;;;;;;;2.50;100.00;100502.72;106374;1285;61269;-76
2022/11/12 04:27:17;;;;;;;73.30;56.70;;;;;;;2.47;100.00;100511.35;106345;1285;59627;-75
2022/11/12 04:32:32;;;;;;;77.30;57.80;;;;;;;2.45;100.00;100511.38;106332;1282;67533;-74
2022/11/12 04:34:59;;;;;;;71.20;54.40;;;;;;;2.44;100.00;100512.42;106367;1284;61421;-75
2022/11/12 04:37:28;;;;;;;70.90;56.00;;;;;;;2.43;100.00;100509.28;106326;1278;65185;-75
2022/11/12 04:44:58;;;;;;;80.90;60.40;;;;;;;2.42;100.00;100505.95;106318;1277;59642;-76
2022/11/12 04:45:26;;;;;;;80.20;63.40;;;;;;;2.39;100.00;100512.11;106329;1278;75519;-75
2022/11/12 04:47:53;;;;;;;76.30;57.90;;;;;;;2.38;100.00;100513.00;106354;1284;68780;-76
2022/11/12 04:50:19;;;;;;;68.80;54.80;;;;;;;2.37;100.00;100501.96;106340;1276;59698;-75
2022/11/12 04:52:46;;;;;;;69.40;55.70;;;;;;;2.35;100.00;100496.19;106319;1285;59707;-75
2022/11/12 04:55:12;;;;;;;74.90;62.40;;;;;;;2.33;100.00;100495.17;106035;1286;60008;-75
2022/11/12 04:57:39;;;;;;;81.00;61.70;;;;;;;2.32;100.00;100494.66;106340;1276;60172;-75
2022/11/12 05:00:06;;;;;;;80.10;64.90;;;;;;;2.30;100.00;100494.85;106273;1284;67581;-75
2022/11/12 05:02:32;;;;;;;92.10;76.10;;;;;;;2.29;100.00;100493.80;106319;1285;73837;-76
2022/11/12 05:04:59;;;;;;;87.70;67.00;;;;;;;2.27;100.00;100499.08;106321;1285;59701;-76
2022/11/12 05:07:25;;;;;;;95.10;73.20;;;;;;;2.25;100.00;100497.00;106340;1287;59633;-76
2022/11/12 05:09:52;;;;;;;80.00;62.60;;;;;;;2.22;100.00;100495.96;106327;1285;59812;-75
2022/11/12 05:12:18;;;;;;;74.70;59.90;;;;;;;2.18;100.00;100498.45;106356;1285;67844;-74
2022/11/12 05:14:45;;;;;;;71.00;53.70;;;;;;;2.15;100.00;100499.70;106321;1278;72817;-75
2022/11/12 05:17:12;;;;;;;67.70;54.20;;;;;;;2.12;100.00;100497.45;106029;1289;59692;-75
2022/11/12 05:19:39;;;;;;;65.10;52.10;;;;;;;2.10;100.00;100493.08;106343;1285;59735;-75
2022/11/12 05:22:05;;;;;;;76.20;61.70;;;;;;;2.08;100.00;100490.64;106332;1285;76652;-75
2022/11/12 05:24:38;;;;;;;68.20;54.80;;;;;;;2.07;100.00;100493.12;106371;1292;59723;-75
2022/11/12 05:27:08;;;;;;;76.30;61.30;;;;;;;2.04;100.00;100497.52;106350;1285;64750;-76
2022/11/12 05:29:35;;;;;;;67.70;54.40;;;;;;;2.01;100.00;100507.18;106333;1285;59697;-76
2022/11/12 05:32:03;;;;;;;66.70;52.90;;;;;;;1.98;100.00;100510.02;106343;1286;59519;-75
2022/11/12 05:34:30;;;;;;;65.10;50.30;;;;;;;1.92;100.00;100515.66;106345;1285;76794;-75
2022/11/12 05:36:56;;;;;;;67.30;51.90;;;;;;;1.87;100.00;100518.33;106326;1278;60058;-76
2022/11/12 05:39:23;;;;;;;60.20;47.90;;;;;;;1.82;100.00;100522.40;105609;1285;1002345;-75
2022/11/12 05:41:50;;;;;;;57.40;45.80;;;;;;;1.79;100.00;100523.29;106349;1285;59851;-75
2022/11/12 05:44:17;;;;;;;60.10;44.80;;;;;;;1.78;100.00;100526.80;106335;1285;59625;-74
2022/11/12 05:46:44;;;;;;;54.50;42.60;;;;;;;1.77;100.00;100528.21;106364;1285;66717;-76
2022/11/12 05:49:10;;;;;;;55.80;44.00;;;;;;;1.75;100.00;100532.25;106344;1276;61029;-76
2022/11/12 05:51:37;;;;;;;62.20;50.50;;;;;;;1.75;100.00;100531.37;106328;1279;62625;-75
2022/11/12 05:54:04;;;;;;;64.30;47.30;;;;;;;1.78;100.00;100527.67;106367;1286;59646;-76
2022/11/12 05:56:31;;;;;;;62.20;47.60;;;;;;;1.78;100.00;100524.52;106107;1288;60176;-76
2022/11/12 05:58:57;;;;;;;60.90;49.20;;;;;;;1.75;100.00;100529.79;106316;1284;76607;-76
2022/11/12 06:01:24;;;;;;;68.00;51.10;;;;;;;1.76;100.00;100537.86;106342;1284;59968;-77
2022/11/12 06:03:51;;;;;;;67.50;53.30;;;;;;;1.78;100.00;100539.41;106345;1290;65204;-76
2022/11/12 06:06:17;;;;;;;67.40;53.00;;;;;;;1.79;100.00;100538.00;106336;1285;59636;-77
2022/11/12 06:08:44;;;;;;;68.00;51.50;;;;;;;1.82;100.00;100539.04;106240;1281;59700;-76
2022/11/12 06:11:11;;;;;;;65.20;50.20;;;;;;;1.86;100.00;100537.77;106334;1285;67705;-75
2022/11/12 06:13:37;;;;;;;68.00;52.10;;;;;;;1.91;100.00;100540.73;106040;1290;60749;-74
2022/11/12 06:16:04;;;;;;;66.80;52.00;;;;;;;1.95;100.00;100540.89;106340;1285;65613;-76
2022/11/12 06:18:31;;;;;;;65.10;52.10;;;;;;;1.99;100.00;100539.27;106277;1286;59710;-77
2022/11/12 06:21:23;;;;;;;65.00;50.90;;;;;;;2.05;100.00;100540.27;106330;1278;59582;-77
2022/11/12 06:23:52;;;;;;;70.50;51.70;;;;;;;2.10;100.00;100540.60;106052;1284;65175;-76
2022/11/12 06:26:19;;;;;;;61.20;46.90;;;;;;;2.16;100.00;100545.45;105636;1285;1006186;-76
2022/11/12 06:28:47;;;;;;;58.60;49.10;;;;;;;2.22;100.00;100542.77;106347;1276;62625;-77
2022/11/12 06:31:15;;;;;;;72.70;54.80;;;;;;;2.28;100.00;100545.02;106349;1278;59691;-75
2022/11/12 06:33:42;;;;;;;65.30;53.80;;;;;;;2.36;100.00;100543.89;106344;1278;59714;-76
2022/11/12 06:36:10;;;;;;;72.50;58.20;;;;;;;2.44;100.00;100546.80;106327;1278;67999;-77
2022/11/12 06:38:39;;;;;;;67.00;56.50;;;;;;;2.52;100.00;100546.20;106367;1278;61256;-75
2022/11/12 06:41:07;;;;;;;66.10;55.90;;;;;;;2.57;100.00;100545.45;106339;1279;65112;-76
2022/11/12 06:43:33;;;;;;;72.50;58.90;;;;;;;2.65;100.00;100545.90;106355;1285;59734;-76
2022/11/12 06:46:02;;;;;;;73.30;62.20;;;;;;;2.72;100.00;100544.61;106343;1285;60273;-76
2022/11/12 06:48:29;;;;;;;78.60;64.20;;;;;;;2.80;100.00;100542.26;106105;1288;67615;-75
2022/11/12 06:50:57;;;;;;;70.40;59.40;;;;;;;2.89;100.00;100550.40;106354;1284;68542;-75
2022/11/12 06:53:24;;;;;;;70.80;58.20;;;;;;;2.96;100.00;100552.96;106333;1279;64771;-76
2022/11/12 06:56:00;;;;;;;69.10;58.20;;;;;;;3.03;100.00;100555.19;106318;1285;59729;-76
2022/11/12 06:58:26;;;;;;;66.00;56.40;;;;;;;3.11;100.00;100556.48;106338;1285;60428;-76
2022/11/12 07:00:53;;;;;;;62.10;54.20;;;;;;;3.20;100.00;100559.20;106060;1287;67986;-74
2022/11/12 07:03:19;;;;;;;63.00;54.30;;;;;;;3.30;100.00;100555.73;106343;1279;59646;-76
2022/11/12 07:05:46;;;;;;;69.90;57.00;;;;;;;3.38;100.00;100554.23;106346;1285;59973;-75
2022/11/12 07:08:12;;;;;;;65.40;58.30;;;;;;;3.47;100.00;100554.48;106345;1285;60114;-76
2022/11/12 07:10:39;;;;;;;74.70;61.10;;;;;;;3.57;100.00;100555.23;106353;1284;59824;-76
2022/11/12 07:13:05;;;;;;;74.90;61.30;;;;;;;3.68;100.00;100556.30;106349;1278;60235;-76
2022/11/12 07:15:32;;;;;;;71.70;60.70;;;;;;;3.79;100.00;100558.80;106365;1285;59779;-75
2022/11/12 07:17:59;;;;;;;73.70;61.40;;;;;;;3.90;100.00;100558.80;106389;1278;65164;-76
2022/11/12 07:20:25;;;;;;;70.70;60.00;;;;;;;4.01;100.00;100561.63;106336;1286;59917;-75
2022/11/12 07:22:52;;;;;;;73.40;60.70;;;;;;;4.13;100.00;100563.55;106369;1285;60518;-74
2022/11/12 07:25:20;;;;;;;69.20;57.10;;;;;;;4.26;100.00;100567.59;106344;1285;67887;-75
2022/11/12 07:27:46;;;;;;;72.60;58.20;;;;;;;4.38;100.00;100568.09;106340;1286;61363;-74
2022/11/12 07:30:13;;;;;;;84.50;63.80;;;;;;;4.51;100.00;100566.47;106369;1276;62608;-76
2022/11/12 07:32:39;;;;;;;84.30;65.50;;;;;;;4.63;100.00;100569.08;106323;1292;59760;-74
2022/11/12 07:35:06;;;;;;;83.30;64.90;;;;;;;4.75;100.00;100564.82;106342;1285;59809;-75
2022/11/12 07:37:34;;;;;;;76.30;61.70;;;;;;;4.85;100.00;100562.87;106356;1285;67591;-76
2022/11/12 07:40:02;;;;;;;74.30;58.30;;;;;;;4.96;100.00;100563.73;106339;1284;67654;-74
2022/11/12 07:42:32;;;;;;;71.10;55.80;;;;;;;5.05;100.00;100562.51;106327;1292;63954;-74
2022/11/12 07:44:58;;;;;;;68.20;53.60;;;;;;;5.15;100.00;100567.08;106336;1284;59696;-76
2022/11/12 07:47:25;;;;;;;63.70;51.90;;;;;;;5.20;100.00;100567.68;106393;1285;60005;-76
2022/11/12 07:49:52;;;;;;;61.10;49.30;;;;;;;5.28;100.00;100565.41;106341;1285;66584;-77
2022/11/12 07:52:18;;;;;;;60.30;47.80;;;;;;;5.37;100.00;100560.98;106350;1284;69936;-76
2022/11/12 07:54:45;;;;;;;59.90;47.80;;;;;;;5.43;100.00;100562.09;106336;1279;65126;-76
2022/11/12 07:57:11;;;;;;;56.90;46.80;;;;;;;5.52;100.00;100567.02;106326;1287;59671;-74
2022/11/12 07:59:38;;;;;;;60.90;46.20;;;;;;;5.60;100.00;100570.72;106348;1278;59764;-75
2022/11/12 08:02:08;;;;;;;57.80;47.00;;;;;;;5.72;100.00;100569.95;106297;1285;76546;-75
2022/11/12 08:04:35;;;;;;;;;;;;;;;5.85;100.00;100574.42;106329;1285;59986;-75
2022/11/12 08:07:01;;;;;;;59.50;46.50;;;;;;;5.97;100.00;100574.19;106357;1285;60155;-76
2022/11/12 08:09:28;;;;;;;51.90;41.50;;;;;;;6.08;100.00;100570.95;106356;1286;59676;-77
2022/11/12 08:11:54;;;;;;;61.80;42.80;;;;;;;6.19;100.00;100571.56;106347;1279;59742;-75
2022/11/12 08:14:21;;;;;;;54.30;42.30;;;;;;;6.27;100.00;100571.73;106362;1285;66788;-76
2022/11/12 08:16:49;;;;;;;54.10;42.50;;;;;;;6.35;100.00;100575.93;106380;1282;59981;-77
2022/11/12 08:19:16;;;;;;;51.60;39.50;;;;;;;6.46;100.00;100571.80;106351;1286;65284;-77
2022/11/12 08:21:43;;;;;;;54.90;40.50;;;;;;;6.56;100.00;100566.59;106340;1285;59953;-76
2022/11/12 08:24:09;;;;;;;49.50;41.30;;;;;;;6.66;100.00;100567.23;106340;1285;59867;-76
2022/11/12 08:26:36;;;;;;;52.20;40.60;;;;;;;6.77;100.00;100570.66;106223;1289;67645;-76
2022/11/12 08:29:03;;;;;;;48.40;40.40;;;;;;;6.87;100.00;100568.80;106361;1284;60015;-76
2022/11/12 08:31:30;;;;;;;46.90;38.40;;;;;;;6.98;100.00;100566.05;106337;1286;72629;-77
2022/11/12 08:33:56;;;;;;;50.10;38.40;;;;;;;7.09;100.00;100567.33;106245;1289;60187;-78
2022/11/12 08:36:23;;;;;;;47.90;38.80;;;;;;;7.21;100.00;100562.77;106346;1284;60484;-76
2022/11/12 08:38:52;;;;;;;46.80;35.90;;;;;;;7.31;100.00;100561.06;106326;1285;65389;-76
2022/11/12 08:41:18;;;;;;;44.40;33.70;;;;;;;7.43;100.00;100561.23;106109;1282;60314;-76
2022/11/12 08:43:45;;;;;;;38.70;30.40;;;;;;;7.56;100.00;100561.41;106329;1286;64581;-76
2022/11/12 08:46:11;;;;;;;37.40;28.50;;;;;;;7.67;100.00;100562.31;106359;1284;59712;-75
2022/11/12 08:48:39;;;;;;;30.10;22.80;;;;;;;7.79;100.00;100566.39;106342;1286;59699;-77
2022/11/12 08:51:06;;;;;;;26.20;20.90;;;;;;;7.93;100.00;100565.97;106345;1284;67552;-76
2022/11/12 08:53:33;;;;;;;23.80;19.40;;;;;;;8.05;100.00;100564.70;106350;1286;61007;-77
2022/11/12 08:55:59;;;;;;;26.70;20.90;;;;;;;8.15;100.00;100560.46;106351;1285;64222;-76
2022/11/12 08:58:26;;;;;;;26.70;19.70;;;;;;;8.25;100.00;100560.17;106333;1283;59704;-76
2022/11/12 09:00:54;;;;;;;26.60;19.00;;;;;;;8.35;100.00;100563.20;106361;1278;59654;-77
2022/11/12 09:03:23;;;;;;;27.50;18.90;;;;;;;8.43;100.00;100568.46;106338;1284;75466;-76
2022/11/12 09:05:51;;;;;;;24.40;18.60;;;;;;;8.51;100.00;100570.33;106343;1285;59977;-77
2022/11/12 09:08:21;;;;;;;23.10;18.20;;;;;;;8.60;100.00;100570.55;106338;1278;65291;-77
2022/11/12 09:10:48;;;;;;;21.20;17.00;;;;;;;8.70;100.00;100568.98;106343;1286;59559;-78
2022/11/12 09:13:18;;;;;;;21.90;17.90;;;;;;;8.77;100.00;100569.27;106281;1284;60418;-79
2022/11/12 09:15:46;;;;;;;22.40;17.60;;;;;;;8.87;100.00;100572.82;106355;1286;75196;-79
2022/11/12 09:18:16;;;;;;;21.60;16.70;;;;;;;8.95;100.00;100575.20;106115;1289;61274;-81
2022/11/12 09:20:44;;;;;;;22.70;15.90;;;;;;;9.04;100.00;100572.79;106316;1292;64407;-79
2022/11/12 09:23:16;;;;;;;22.40;16.10;;;;;;;9.13;100.00;100567.66;106340;1285;60104;-78
2022/11/12 09:25:43;;;;;;;18.50;14.80;;;;;;;9.24;100.00;100564.96;106355;1280;59715;-80
2022/11/12 09:28:11;;;;;;;23.40;17.40;;;;;;;9.33;100.00;100564.45;106321;1284;65489;-77
2022/11/12 09:30:42;;;;;;;22.50;16.10;;;;;;;9.41;100.00;100563.80;106325;1278;61049;-77
2022/11/12 09:33:09;;;;;;;20.40;15.60;;;;;;;9.48;100.00;100566.20;106123;1292;65068;-79
2022/11/12 09:35:35;;;;;;;22.00;16.30;;;;;;;9.55;100.00;100565.95;106317;1278;59721;-78
2022/11/12 09:38:01;;;;;;;22.20;15.70;;;;;;;9.64;100.00;100564.34;106326;1278;60096;-79
2022/11/12 09:40:51;;;;;;;17.50;13.70;;;;;;;9.75;100.00;100563.23;106323;1285;59615;-79
2022/11/12 09:43:28;;;;;;;17.30;14.40;;;;;;;9.86;100.00;100560.35;106283;1293;68722;-79
2022/11/12 09:46:02;;;;;;;23.50;15.20;;;;;;;9.92;100.00;100553.88;106320;1284;64962;-79
2022/11/12 09:48:37;;;;;;;18.00;13.40;;;;;;;10.02;100.00;100553.67;106307;1285;59717;-79
2022/11/12 09:51:12;;;;;;;18.80;14.60;;;;;;;10.10;100.00;100551.73;106354;1285;59667;-79
2022/11/12 09:53:49;;;;;;;16.90;13.40;;;;;;;10.21;100.00;100554.70;106371;1285;68120;-80
2022/11/12 09:56:19;;;;;;;22.10;15.20;;;;;;;10.30;100.00;100550.25;106361;1285;59714;-80
2022/11/12 09:58:46;;;;;;;20.30;14.80;;;;;;;10.42;100.00;100548.02;106324;1278;64149;-80
2022/11/12 10:01:22;;;;;;;19.20;14.00;;;;;;;10.52;100.00;100548.80;106327;1285;59588;-79
2022/11/12 10:04:02;;;;;;;19.50;14.90;;;;;;;10.63;100.00;100544.11;106159;1285;59759;-78
2022/11/12 10:06:37;;;;;;;18.60;14.10;;;;;;;10.73;100.00;100545.63;106328;1285;76656;-78
2022/11/12 10:09:21;;;;;;;18.80;14.70;;;;;;;10.85;100.00;100548.83;106307;1284;67453;-79
2022/11/12 10:18:34;;;;;;;22.20;16.80;;;;;;;11.23;100.00;100542.74;105766;1295;59642;-80
2022/11/12 10:21:26;;;;;;;20.30;16.10;;;;;;;11.35;100.00;100541.14;106289;1286;76645;-78
2022/11/12 10:23:53;;;;;;;21.60;15.30;;;;;;;11.42;100.00;100541.16;105777;1289;61301;-79
2022/11/12 10:26:23;;;;;;;21.70;16.40;;;;;;;11.49;100.00;100542.98;105727;1277;65257;-79
2022/11/12 10:28:58;;;;;;;;;;;;;;;11.58;100.00;100538.48;105730;1297;60020;-80
2022/11/12 10:31:25;;;;;;;19.90;15.00;;;;;;;11.65;100.00;100536.17;105744;1289;59860;-79
2022/11/12 10:34:12;;;;;;;18.50;14.20;;;;;;;11.75;100.00;100538.77;105761;1293;68071;-79
2022/11/12 10:36:44;;;;;;;19.40;14.30;;;;;;;11.82;100.00;100537.52;105759;1289;60035;-79
2022/11/12 10:39:30;;;;;;;19.30;14.60;;;;;;;11.87;100.00;100536.23;105759;1292;63955;-80
2022/11/12 10:42:02;;;;;;;38.30;15.40;;;;;;;11.96;100.00;100534.23;105739;1287;59925;-79
2022/11/12 10:44:29;;;;;;;17.50;13.20;;;;;;;12.01;100.00;100533.45;105754;1300;59705;-80
2022/11/12 10:47:15;;;;;;;18.10;12.90;;;;;;;12.03;100.00;100530.69;105743;1285;66579;-78
2022/11/12 10:49:41;;;;;;;19.10;13.30;;;;;;;12.07;100.00;100527.98;105727;1284;60092;-79
2022/11/12 10:52:23;;;;;;;17.30;12.90;;;;;;;12.09;100.00;100526.45;105765;1277;64687;-78
2022/11/12 10:55:22;;;;;;;15.20;11.10;;;;;;;12.12;100.00;100523.11;105729;1295;59963;-78
2022/11/12 10:58:20;;;;;;;15.00;12.10;;;;;;;12.14;100.00;100527.46;105738;1294;59616;-75
2022/11/12 11:00:53;;;;;;;14.80;10.90;;;;;;;12.19;100.00;100531.13;105487;1299;74795;-80
2022/11/12 11:03:26;;;;;;;18.80;11.90;;;;;;;12.25;100.00;100528.00;105753;1298;61601;-79
2022/11/12 11:06:03;;;;;;;17.30;11.10;;;;;;;12.30;100.00;100523.81;105814;1291;65122;-79
2022/11/12 11:08:36;;;;;;;14.50;10.70;;;;;;;12.36;100.00;100526.92;105811;1292;59744;-78
2022/11/12 11:11:22;;;;;;;14.50;10.80;;;;;;;12.41;100.00;100528.09;105757;1293;59549;-79
2022/11/12 11:13:51;;;;;;;18.00;11.90;;;;;;;12.47;100.00;100528.48;105830;1290;67959;-79
2022/11/12 11:16:24;;;;;;;13.80;10.10;;;;;;;12.54;100.00;100526.73;105863;1290;60055;-77
2022/11/12 11:19:01;;;;;;;13.00;9.60;;;;;;;12.60;100.00;100519.46;105823;1291;64056;-79
2022/11/12 11:21:50;;;;;;;15.10;10.60;;;;;;;12.65;100.00;100519.77;105806;1290;59902;-81
2022/11/12 11:24:20;;;;;;;13.70;11.20;;;;;;;12.70;100.00;100519.81;105852;1284;59701;-79
2022/11/12 11:27:06;;;;;;;15.60;10.50;;;;;;;12.75;100.00;100521.21;105860;1290;67965;-79
2022/11/12 11:29:36;;;;;;;15.00;11.70;;;;;;;12.75;100.00;100518.37;105865;1288;60837;-79
2022/11/12 11:32:17;;;;;;;14.50;11.50;;;;;;;12.77;100.00;100517.02;105848;1291;65142;-79
2022/11/12 11:35:21;;;;;;;16.20;12.40;;;;;;;12.78;100.00;100518.02;105824;1290;59766;-80
2022/11/12 11:38:27;;;;;;;17.00;11.90;;;;;;;12.79;100.00;100521.38;106133;1284;59757;-79